Terminal Aerodrome Forecast
Issued by NWS

Home | Current Version | Previous Version | Text Only | Print | Product List | Glossary On
Versions: 1 2 3 4 5 6 7 8 9 10 11 12
000
FTUS43 KMPX 131700
TAFRNH
TAF
KRNH 131739Z 1318/1418 22010G16KT P6SM SCT050 BKN200
     FM132300 17008KT P6SM FEW200
     FM140400 19008KT P6SM BKN060
     FM141300 23009KT P6SM FEW200=

USA.gov is the U.S. government's official web portal to all federal, state and local government web resources and services.